createdAt,value
2019-04-22T00:00:17.900Z,0.00
2019-04-22T00:01:20.556Z,0.00
2019-04-22T00:02:17.112Z,0.00
2019-04-22T00:03:19.954Z,0.00
2019-04-22T00:04:22.596Z,0.00
2019-04-22T00:05:36.497Z,0.00
2019-04-22T00:06:39.033Z,0.00
2019-04-22T00:08:47.546Z,0.00
2019-04-22T00:09:45.730Z,0.00
2019-04-22T00:10:48.679Z,0.00
2019-04-22T00:11:48.527Z,0.00
2019-04-22T00:12:42.400Z,0.00
2019-04-22T00:13:48.832Z,0.00
2019-04-22T00:14:36.834Z,0.00
2019-04-22T00:15:39.237Z,0.00
2019-04-22T00:16:47.015Z,0.00
2019-04-22T00:17:46.545Z,0.00
2019-04-22T00:18:54.898Z,0.00
2019-04-22T00:19:43.873Z,0.00
2019-04-22T00:20:44.071Z,0.00
2019-04-22T00:21:47.622Z,0.00
2019-04-22T00:22:42.704Z,0.00
2019-04-22T00:23:39.215Z,0.00
2019-04-22T00:24:44.539Z,0.00
2019-04-22T00:25:49.406Z,0.00
2019-04-22T00:26:43.959Z,0.00
2019-04-22T00:28:48.318Z,0.00
2019-04-22T00:30:41.906Z,0.00
2019-04-22T00:31:40.374Z,0.00
2019-04-22T00:32:39.627Z,0.00
2019-04-22T00:33:38.893Z,0.00
2019-04-22T00:34:42.613Z,0.00
2019-04-22T00:35:41.985Z,0.00
2019-04-22T00:36:44.898Z,0.00
2019-04-22T00:37:46.241Z,0.00
2019-04-22T00:38:44.412Z,0.00
2019-04-22T00:39:41.952Z,0.00
2019-04-22T00:40:47.679Z,0.00
2019-04-22T00:41:44.062Z,0.00
2019-04-22T00:42:42.738Z,0.00
2019-04-22T00:43:48.147Z,0.00
2019-04-22T00:44:47.687Z,0.00
2019-04-22T00:45:43.166Z,0.00
2019-04-22T00:46:46.244Z,0.00
2019-04-22T00:47:37.708Z,0.00
2019-04-22T00:48:42.059Z,0.00
2019-04-22T00:50:51.887Z,0.00
2019-04-22T00:51:52.603Z,0.00
2019-04-22T00:52:43.137Z,0.00
2019-04-22T00:53:39.212Z,0.00
2019-04-22T00:54:45.607Z,0.00
2019-04-22T00:55:46.346Z,0.00
2019-04-22T00:56:42.242Z,0.00
2019-04-22T00:57:41.551Z,0.00
2019-04-22T00:58:47.047Z,0.00
2019-04-22T00:59:50.296Z,0.00
2019-04-22T01:00:48.086Z,0.00
2019-04-22T01:01:44.022Z,0.00
2019-04-22T01:02:49.771Z,0.00
2019-04-22T01:04:49.033Z,0.00
2019-04-22T01:05:50.491Z,0.00
2019-04-22T01:06:38.849Z,0.00
2019-04-22T01:07:43.444Z,0.00
2019-04-22T01:09:46.368Z,0.00
2019-04-22T01:10:49.389Z,0.00
2019-04-22T01:12:04.081Z,0.00
2019-04-22T01:12:44.296Z,0.00
2019-04-22T01:13:44.266Z,0.00
2019-04-22T01:14:46.017Z,0.00
2019-04-22T01:15:47.582Z,0.00
2019-04-22T01:16:44.246Z,0.00
2019-04-22T01:17:45.024Z,0.00
2019-04-22T01:18:44.069Z,0.00
2019-04-22T01:19:52.898Z,0.00
2019-04-22T01:22:38.370Z,0.00
2019-04-22T01:23:40.805Z,0.00
2019-04-22T01:24:38.734Z,0.00
2019-04-22T01:25:41.070Z,0.00
2019-04-22T01:26:34.609Z,0.00
2019-04-22T01:27:34.968Z,0.00
2019-04-22T01:28:34.265Z,0.00
2019-04-22T01:29:37.991Z,0.00
2019-04-22T01:30:30.344Z,0.00
2019-04-22T01:31:25.322Z,0.00
2019-04-22T01:32:27.290Z,0.00
2019-04-22T01:33:30.637Z,0.00
2019-04-22T01:34:36.370Z,0.00
2019-04-22T01:35:35.199Z,0.00
2019-04-22T01:36:45.698Z,0.00
2019-04-22T01:37:41.653Z,0.00
2019-04-22T01:38:45.492Z,0.00
2019-04-22T01:39:44.385Z,0.00
2019-04-22T01:40:45.531Z,0.00
2019-04-22T01:41:55.134Z,0.00
2019-04-22T01:42:53.658Z,0.00
2019-04-22T01:43:53.095Z,0.00
2019-04-22T01:44:45.425Z,0.00
2019-04-22T01:45:49.668Z,0.00
2019-04-22T01:47:45.217Z,0.00
2019-04-22T01:48:48.665Z,0.00
2019-04-22T01:49:45.889Z,0.00
2019-04-22T01:50:44.544Z,0.00
2019-04-22T01:52:56.765Z,0.00
2019-04-22T01:53:50.637Z,0.00
2019-04-22T01:55:04.520Z,0.00
2019-04-22T01:55:55.516Z,0.00
2019-04-22T01:56:51.092Z,0.00
2019-04-22T01:57:43.280Z,0.00
2019-04-22T01:58:40.679Z,0.00
2019-04-22T01:59:41.367Z,0.00
2019-04-22T02:00:49.150Z,0.00
2019-04-22T02:01:52.823Z,0.00
2019-04-22T02:02:49.222Z,0.00
2019-04-22T02:03:46.698Z,0.00
2019-04-22T02:05:04.879Z,0.00
2019-04-22T02:05:44.149Z,0.00
2019-04-22T02:06:48.267Z,0.00
2019-04-22T02:07:48.270Z,0.00
2019-04-22T02:08:52.725Z,0.00
2019-04-22T02:09:49.683Z,0.00
2019-04-22T02:10:55.034Z,0.00
2019-04-22T02:12:50.357Z,0.00
2019-04-22T02:13:49.521Z,0.00
2019-04-22T02:14:50.696Z,0.00
2019-04-22T02:15:53.369Z,0.00
2019-04-22T02:16:50.400Z,0.00
2019-04-22T02:17:56.198Z,0.00
2019-04-22T02:18:58.028Z,0.00
2019-04-22T02:19:53.387Z,0.00
2019-04-22T02:20:48.634Z,0.00
2019-04-22T02:21:48.586Z,0.00
2019-04-22T02:23:07.277Z,0.00
2019-04-22T02:25:59.321Z,0.00
2019-04-22T02:26:48.202Z,0.00
2019-04-22T02:27:57.338Z,0.00
2019-04-22T02:29:04.261Z,0.00
2019-04-22T02:29:47.396Z,0.00
2019-04-22T02:31:13.979Z,0.00
2019-04-22T02:31:59.387Z,0.00
2019-04-22T02:33:18.501Z,0.00
2019-04-22T02:34:58.153Z,0.00
2019-04-22T02:36:08.207Z,0.00
2019-04-22T02:36:54.211Z,0.00
2019-04-22T02:38:04.963Z,0.00
2019-04-22T02:39:58.079Z,0.00
2019-04-22T02:41:49.912Z,0.00
2019-04-22T02:43:05.155Z,0.00
2019-04-22T02:44:02.135Z,0.00
2019-04-22T02:46:12.928Z,0.00
2019-04-22T02:49:53.390Z,0.00
2019-04-22T02:52:09.739Z,0.00
2019-04-22T02:52:50.239Z,0.00
2019-04-22T02:55:51.222Z,0.00
2019-04-22T02:56:04.917Z,0.00
2019-04-22T02:56:58.906Z,0.00
2019-04-22T02:57:56.628Z,0.00
2019-04-22T02:59:11.654Z,0.00
2019-04-22T02:59:57.343Z,0.00
2019-04-22T03:01:05.639Z,0.00
2019-04-22T03:04:06.954Z,0.00
2019-04-22T03:04:58.215Z,0.00
2019-04-22T03:06:11.482Z,0.00
2019-04-22T03:06:43.457Z,0.00
2019-04-22T03:07:58.655Z,0.00
2019-04-22T03:09:01.249Z,0.00
2019-04-22T03:09:55.387Z,0.00
2019-04-22T03:12:04.583Z,0.00
2019-04-22T03:12:51.996Z,0.00
2019-04-22T03:16:10.712Z,0.00
2019-04-22T03:16:57.404Z,0.00
2019-04-22T03:20:01.969Z,0.00
2019-04-22T03:21:00.347Z,0.00
2019-04-22T03:21:57.038Z,0.00
2019-04-22T03:23:09.756Z,0.00
2019-04-22T03:24:05.929Z,0.00
2019-04-22T03:25:25.747Z,0.00
2019-04-22T03:26:11.486Z,0.00
2019-04-22T03:27:02.994Z,0.00
2019-04-22T03:28:16.127Z,0.00
2019-04-22T03:30:26.609Z,0.00
2019-04-22T03:34:38.652Z,0.00
2019-04-22T03:39:15.532Z,0.00
2019-04-22T03:40:07.253Z,0.00
2019-04-22T03:45:10.295Z,0.00
2019-04-22T03:45:45.854Z,0.00
2019-04-22T03:47:59.645Z,0.00
2019-04-22T03:49:11.023Z,0.00
2019-04-22T03:50:04.085Z,4.00
2019-04-22T03:51:01.920Z,4.00
2019-04-22T03:53:03.999Z,4.00
2019-04-22T03:54:10.459Z,4.00
2019-04-22T03:55:02.422Z,4.00
2019-04-22T03:56:12.537Z,4.00
2019-04-22T03:59:11.505Z,8.00
2019-04-22T04:00:03.865Z,12.00
2019-04-22T04:02:02.577Z,16.00
2019-04-22T04:03:00.903Z,16.00
2019-04-22T04:04:09.343Z,20.00
2019-04-22T04:05:01.145Z,24.00
2019-04-22T04:06:00.439Z,28.00
2019-04-22T04:07:11.144Z,36.00
2019-04-22T04:09:04.576Z,52.00
2019-04-22T04:10:53.136Z,64.00
2019-04-22T04:13:03.551Z,88.00
2019-04-22T04:14:11.978Z,100.00
2019-04-22T04:15:05.847Z,116.00
2019-04-22T04:15:57.745Z,132.00
2019-04-22T04:17:04.176Z,148.00
2019-04-22T04:19:07.150Z,188.00
2019-04-22T04:20:10.614Z,208.00
2019-04-22T04:21:18.771Z,228.00
2019-04-22T04:22:04.657Z,248.00
2019-04-22T04:23:10.532Z,272.00
2019-04-22T04:24:19.784Z,304.00
2019-04-22T04:26:17.732Z,376.00
2019-04-22T04:27:20.924Z,416.00
2019-04-22T04:28:26.856Z,460.00
2019-04-22T04:29:22.165Z,504.00
2019-04-22T04:31:15.020Z,608.00
2019-04-22T04:33:01.492Z,728.00
2019-04-22T04:34:04.126Z,796.00
2019-04-22T04:35:19.304Z,876.00
2019-04-22T04:36:02.447Z,952.00
2019-04-22T04:37:07.399Z,1032.00
2019-04-22T04:37:55.259Z,1116.00
2019-04-22T04:39:02.858Z,1200.00
2019-04-22T04:40:25.072Z,1288.00
2019-04-22T04:41:01.942Z,1376.00
2019-04-22T04:46:06.908Z,1836.00
2019-04-22T04:47:11.582Z,1920.00
2019-04-22T04:48:00.890Z,2008.00
2019-04-22T04:50:11.914Z,2192.00
2019-04-22T04:54:13.066Z,2592.00
2019-04-22T04:55:10.017Z,2700.00
2019-04-22T04:56:02.793Z,2820.00
2019-04-22T04:56:56.789Z,2936.00
2019-04-22T05:01:08.149Z,3428.00
2019-04-22T05:02:06.668Z,3548.00
2019-04-22T05:02:58.373Z,3660.00
2019-04-22T05:04:08.879Z,3784.00
2019-04-22T05:05:12.120Z,3904.00
2019-04-22T05:06:09.229Z,4032.00
2019-04-22T05:08:01.023Z,4288.00
2019-04-22T05:10:16.511Z,4548.00
2019-04-22T05:12:25.311Z,4812.00
2019-04-22T05:13:10.295Z,4940.00
2019-04-22T05:14:11.920Z,5068.00
2019-04-22T05:15:09.178Z,5196.00
2019-04-22T05:16:20.394Z,5328.00
2019-04-22T05:17:02.236Z,5464.00
2019-04-22T05:19:11.094Z,5728.00
2019-04-22T05:20:05.241Z,5852.00
2019-04-22T05:21:58.127Z,6080.00
2019-04-22T05:23:00.229Z,6184.00
2019-04-22T05:24:05.505Z,6280.00
2019-04-22T05:24:59.913Z,6372.00
2019-04-22T05:25:57.941Z,6456.00
2019-04-22T05:27:16.348Z,6532.00
2019-04-22T05:28:12.216Z,6612.00
2019-04-22T05:29:04.081Z,6676.00
2019-04-22T05:30:23.482Z,6744.00
2019-04-22T05:31:01.544Z,6824.00
2019-04-22T05:31:59.730Z,6896.00
2019-04-22T05:32:55.275Z,6964.00
2019-04-22T05:33:56.774Z,7032.00
2019-04-22T05:34:54.026Z,7100.00
2019-04-22T05:36:01.534Z,7180.00
2019-04-22T05:37:01.268Z,7260.00
2019-04-22T05:38:04.497Z,7344.00
2019-04-22T05:39:00.149Z,7440.00
2019-04-22T05:40:06.600Z,7540.00
2019-04-22T05:41:00.537Z,7624.00
2019-04-22T05:41:56.105Z,7688.00
2019-04-22T05:42:56.461Z,7760.00
2019-04-22T05:44:00.455Z,7832.00
2019-04-22T05:45:00.847Z,7908.00
2019-04-22T05:45:58.882Z,7988.00
2019-04-22T05:46:54.460Z,8072.00
2019-04-22T05:47:59.429Z,8148.00
2019-04-22T05:48:59.853Z,8232.00
2019-04-22T05:49:55.196Z,8316.00
2019-04-22T05:50:59.328Z,8396.00
2019-04-22T05:51:56.704Z,8468.00
2019-04-22T05:52:57.428Z,8544.00
2019-04-22T05:54:01.479Z,8620.00
2019-04-22T05:55:02.508Z,8700.00
2019-04-22T05:56:23.182Z,8772.00
2019-04-22T05:56:52.651Z,8848.00
2019-04-22T05:57:57.776Z,8928.00
2019-04-22T05:58:58.598Z,9012.00
2019-04-22T06:00:04.719Z,9088.00
2019-04-22T06:01:23.533Z,9168.00
2019-04-22T06:03:01.546Z,9316.00
2019-04-22T06:04:05.346Z,9396.00
2019-04-22T06:05:01.922Z,9472.00
2019-04-22T06:05:55.337Z,9552.00
2019-04-22T06:06:54.075Z,9628.00
2019-04-22T06:08:01.494Z,9712.00
2019-04-22T06:09:02.246Z,9796.00
2019-04-22T06:10:06.609Z,9868.00
2019-04-22T06:11:06.049Z,9928.00
2019-04-22T06:11:55.525Z,9996.00
2019-04-22T06:12:56.297Z,10072.00
2019-04-22T06:13:59.173Z,10160.00
2019-04-22T06:14:58.688Z,10280.00
2019-04-22T06:15:44.051Z,10420.00
2019-04-22T06:16:59.172Z,10560.00
2019-04-22T06:18:02.689Z,10712.00
2019-04-22T06:19:05.741Z,10872.00
2019-04-22T06:19:57.629Z,11036.00
2019-04-22T06:21:56.051Z,11372.00
2019-04-22T06:24:05.900Z,11716.00
2019-04-22T06:25:00.948Z,11880.00
2019-04-22T06:28:11.851Z,12432.00
2019-04-22T06:29:07.369Z,12632.00
2019-04-22T06:29:55.439Z,12844.00
2019-04-22T06:31:02.604Z,13048.00
2019-04-22T06:32:17.919Z,13264.00
2019-04-22T06:33:00.812Z,13488.00
2019-04-22T06:34:04.787Z,13860.00
2019-04-22T06:35:12.882Z,17024.00
2019-04-22T06:36:03.738Z,21152.00
2019-04-22T06:38:22.799Z,22464.00
2019-04-22T06:39:05.269Z,23008.00
2019-04-22T06:39:59.280Z,23552.00
2019-04-22T06:41:04.082Z,24160.00
2019-04-22T06:42:06.834Z,23808.00
2019-04-22T06:43:05.668Z,23520.00
2019-04-22T06:44:04.402Z,23296.00
2019-04-22T06:45:04.147Z,24032.00
2019-04-22T06:46:02.170Z,24448.00
2019-04-22T06:46:56.376Z,24544.00
2019-04-22T06:49:03.599Z,25056.00
2019-04-22T06:50:05.374Z,24576.00
2019-04-22T06:51:00.085Z,25056.00
2019-04-22T06:52:03.483Z,24928.00
2019-04-22T06:52:56.877Z,24288.00
2019-04-22T06:54:02.470Z,24352.00
2019-04-22T06:54:59.480Z,24928.00
2019-04-22T06:55:59.670Z,25760.00
2019-04-22T06:56:59.621Z,26048.00
2019-04-22T06:57:59.726Z,26656.00
2019-04-22T06:58:58.010Z,25184.00
2019-04-22T07:00:05.639Z,26112.00
2019-04-22T07:01:04.149Z,25664.00
2019-04-22T07:02:02.187Z,24096.00
2019-04-22T07:04:01.522Z,27232.00
2019-04-22T07:05:01.021Z,28992.00
2019-04-22T07:06:11.177Z,29664.00
2019-04-22T07:07:03.292Z,29760.00
2019-04-22T07:08:04.366Z,31264.00
2019-04-22T07:10:11.511Z,32896.00
2019-04-22T07:10:58.388Z,34368.00
2019-04-22T07:12:02.215Z,34496.00
2019-04-22T07:13:01.503Z,35040.00
2019-04-22T07:14:07.106Z,35680.00
2019-04-22T07:15:03.327Z,36640.00
2019-04-22T07:15:59.474Z,34976.00
2019-04-22T07:17:01.887Z,35520.00
2019-04-22T07:18:07.579Z,37408.00
2019-04-22T07:19:02.555Z,39840.00
2019-04-22T07:19:55.820Z,40672.00
2019-04-22T07:21:01.451Z,40096.00
2019-04-22T07:22:08.850Z,41056.00
2019-04-22T07:23:06.770Z,41376.00
2019-04-22T07:24:20.062Z,42592.00
2019-04-22T07:27:08.205Z,43296.00
2019-04-22T07:27:58.248Z,42496.00
2019-04-22T07:29:01.710Z,41824.00
2019-04-22T07:30:09.548Z,38720.00
2019-04-22T07:31:08.732Z,33568.00
2019-04-22T07:32:04.716Z,35264.00
2019-04-22T07:34:17.830Z,32672.00
2019-04-22T07:35:08.459Z,37312.00
2019-04-22T07:36:28.447Z,35136.00
2019-04-22T07:37:09.261Z,35136.00
2019-04-22T07:38:04.616Z,38848.00
2019-04-22T07:39:08.608Z,40096.00
2019-04-22T07:40:01.874Z,41984.00
2019-04-22T07:41:03.568Z,46976.00
2019-04-22T07:42:10.652Z,50976.00
2019-04-22T07:43:09.829Z,55968.00
2019-04-22T07:44:13.573Z,59456.00
2019-04-22T07:45:05.282Z,59328.00
2019-04-22T07:46:00.302Z,57760.00
2019-04-22T07:48:15.224Z,57248.00
2019-04-22T07:49:06.556Z,58976.00
2019-04-22T07:50:09.598Z,59424.00
2019-04-22T07:52:05.150Z,60000.00
2019-04-22T07:53:08.476Z,59840.00
2019-04-22T07:54:04.613Z,60704.00
2019-04-22T07:55:13.320Z,59968.00
2019-04-22T07:56:05.469Z,59648.00
2019-04-22T07:57:08.958Z,59648.00
2019-04-22T07:58:06.618Z,44480.00
2019-04-22T07:59:03.471Z,34720.00
2019-04-22T08:00:10.942Z,31488.00
2019-04-22T08:01:12.097Z,32416.00
2019-04-22T08:02:07.544Z,34848.00
2019-04-22T08:03:09.841Z,42816.00
2019-04-22T08:04:30.242Z,55776.00
2019-04-22T08:05:18.804Z,56384.00
2019-04-22T08:07:11.400Z,55872.00
2019-04-22T08:08:10.958Z,61152.00
2019-04-22T08:09:07.138Z,49952.00
2019-04-22T08:10:17.027Z,51392.00
2019-04-22T08:11:10.324Z,50368.00
2019-04-22T08:11:56.368Z,59232.00
2019-04-22T08:13:05.175Z,57312.00
2019-04-22T08:14:07.500Z,53984.00
2019-04-22T08:15:07.593Z,55808.00
2019-04-22T08:16:02.648Z,56672.00
2019-04-22T08:17:14.063Z,59840.00
2019-04-22T08:18:06.931Z,57856.00
2019-04-22T08:19:10.555Z,53312.00
2019-04-22T08:20:08.912Z,51744.00
2019-04-22T08:21:06.271Z,60928.00
2019-04-22T08:22:05.973Z,64640.00
2019-04-22T08:23:09.044Z,62272.00
2019-04-22T08:24:07.809Z,59264.00
2019-04-22T08:25:08.162Z,48768.00
2019-04-22T08:26:03.402Z,40640.00
2019-04-22T08:27:08.690Z,37376.00
2019-04-22T08:28:07.818Z,34048.00
2019-04-22T08:29:08.119Z,32000.00
2019-04-22T08:30:14.144Z,31584.00
2019-04-22T08:31:10.571Z,33600.00
2019-04-22T08:32:11.158Z,33920.00
2019-04-22T08:33:13.829Z,37856.00
2019-04-22T08:34:06.386Z,45312.00
2019-04-22T08:35:05.159Z,39616.00
2019-04-22T08:36:10.778Z,41664.00
2019-04-22T08:37:35.452Z,40832.00
2019-04-22T08:38:11.502Z,45952.00
2019-04-22T08:39:08.241Z,47616.00
2019-04-22T08:40:17.024Z,44832.00
2019-04-22T08:41:08.642Z,55232.00
2019-04-22T08:42:16.263Z,43712.00
2019-04-22T08:43:13.999Z,41792.00
2019-04-22T08:44:07.958Z,39968.00
2019-04-22T08:46:11.321Z,38080.00
2019-04-22T08:47:11.223Z,34688.00
2019-04-22T08:48:01.620Z,32448.00
2019-04-22T08:49:05.702Z,31584.00
2019-04-22T08:50:09.042Z,30848.00
2019-04-22T08:51:08.777Z,31136.00
2019-04-22T08:52:08.601Z,31840.00
2019-04-22T08:53:08.118Z,33728.00
2019-04-22T08:54:11.796Z,34624.00
2019-04-22T08:55:15.861Z,35680.00
2019-04-22T08:56:14.495Z,39712.00
2019-04-22T08:57:25.902Z,41600.00
2019-04-22T08:59:09.460Z,46560.00
2019-04-22T09:00:08.383Z,43232.00
2019-04-22T09:01:11.619Z,47168.00
2019-04-22T09:02:17.463Z,49600.00
2019-04-22T09:03:12.375Z,51968.00
2019-04-22T09:04:24.674Z,50912.00
2019-04-22T09:05:20.616Z,57280.00
2019-04-22T09:06:11.323Z,59264.00
2019-04-22T09:09:06.531Z,68576.00
2019-04-22T09:10:15.639Z,71584.00
2019-04-22T09:11:18.166Z,66464.00
2019-04-22T09:12:08.203Z,72128.00
2019-04-22T09:13:20.604Z,68608.00
2019-04-22T09:14:11.326Z,72544.00
2019-04-22T09:15:03.931Z,76128.00
2019-04-22T09:16:12.391Z,77856.00
2019-04-22T09:17:13.709Z,72672.00
2019-04-22T09:18:11.118Z,76608.00
2019-04-22T09:19:08.242Z,82496.00
2019-04-22T09:20:10.438Z,81728.00
2019-04-22T09:21:15.519Z,78240.00
2019-04-22T09:22:13.688Z,69920.00
2019-04-22T09:23:11.190Z,69568.00
2019-04-22T09:24:14.169Z,67008.00
2019-04-22T09:25:11.732Z,71968.00
2019-04-22T09:26:10.700Z,74880.00
2019-04-22T09:27:12.953Z,83840.00
2019-04-22T09:28:10.341Z,84864.00
2019-04-22T09:29:14.250Z,82400.00
2019-04-22T09:30:17.021Z,77440.00
2019-04-22T09:31:23.973Z,74848.00
2019-04-22T09:32:14.748Z,79648.00
2019-04-22T09:33:14.065Z,84608.00
2019-04-22T09:34:06.910Z,82112.00
2019-04-22T09:35:30.634Z,84640.00
2019-04-22T09:36:16.513Z,83520.00
2019-04-22T09:37:23.663Z,90688.00
2019-04-22T09:38:26.369Z,94368.00
2019-04-22T09:39:10.572Z,90560.00
2019-04-22T09:40:15.860Z,94240.00
2019-04-22T09:41:16.892Z,90688.00
2019-04-22T09:42:13.422Z,94176.00
2019-04-22T09:43:10.096Z,92768.00
2019-04-22T09:44:21.818Z,92224.00
2019-04-22T09:46:06.546Z,88672.00
2019-04-22T09:47:12.821Z,87616.00
2019-04-22T09:49:12.056Z,83936.00
2019-04-22T09:50:08.001Z,80864.00
2019-04-22T09:51:09.829Z,79328.00
2019-04-22T09:52:10.270Z,83680.00
2019-04-22T09:53:08.490Z,88352.00
2019-04-22T09:54:14.684Z,87520.00
2019-04-22T09:55:12.499Z,86880.00
2019-04-22T09:56:12.229Z,86880.00
2019-04-22T09:57:09.225Z,86272.00
2019-04-22T09:58:09.719Z,81568.00
2019-04-22T09:59:07.703Z,75392.00
2019-04-22T10:00:09.803Z,74112.00
2019-04-22T10:01:18.732Z,78496.00
2019-04-22T10:03:16.639Z,79904.00
2019-04-22T10:04:06.899Z,86880.00
2019-04-22T10:05:11.458Z,87424.00
2019-04-22T10:06:16.534Z,91040.00
2019-04-22T10:07:15.303Z,94272.00
2019-04-22T10:08:16.848Z,95328.00
2019-04-22T10:10:38.071Z,94176.00
2019-04-22T10:11:14.317Z,93792.00
2019-04-22T10:12:11.925Z,94784.00
2019-04-22T10:13:12.292Z,90848.00
2019-04-22T10:14:14.157Z,86336.00
2019-04-22T10:15:05.813Z,87872.00
2019-04-22T10:16:17.575Z,95616.00
2019-04-22T10:17:07.841Z,99936.00
2019-04-22T10:18:12.772Z,110336.00
2019-04-22T10:19:14.529Z,109088.00
2019-04-22T10:20:10.209Z,110208.00
2019-04-22T10:21:16.562Z,101984.00
2019-04-22T10:22:10.955Z,94816.00
2019-04-22T10:23:15.348Z,88352.00
2019-04-22T10:24:09.103Z,87136.00
2019-04-22T10:25:11.909Z,89728.00
2019-04-22T10:26:16.259Z,89952.00
2019-04-22T10:27:07.961Z,88992.00
2019-04-22T10:28:15.080Z,90304.00
2019-04-22T10:29:13.700Z,93440.00
2019-04-22T10:30:15.153Z,103456.00
2019-04-22T10:31:21.982Z,105344.00
2019-04-22T10:32:12.619Z,104992.00
2019-04-22T10:33:05.698Z,105824.00
2019-04-22T10:33:59.950Z,99936.00
2019-04-22T10:34:55.549Z,98144.00
2019-04-22T10:35:47.676Z,97056.00
2019-04-22T10:36:52.699Z,91008.00
2019-04-22T10:37:48.012Z,86816.00
2019-04-22T10:38:48.562Z,84192.00
2019-04-22T10:39:54.089Z,84288.00
2019-04-22T10:40:46.914Z,87808.00
2019-04-22T10:41:48.484Z,91712.00
2019-04-22T10:42:47.329Z,97408.00
2019-04-22T10:43:47.595Z,99328.00
2019-04-22T10:44:48.529Z,102752.00
2019-04-22T10:45:48.096Z,102848.00
2019-04-22T10:46:48.299Z,95872.00
2019-04-22T10:47:48.005Z,92992.00
2019-04-22T10:48:48.310Z,89536.00
2019-04-22T10:49:48.641Z,87424.00
2019-04-22T10:50:48.803Z,86080.00
2019-04-22T10:51:48.705Z,91520.00
2019-04-22T10:52:47.762Z,89184.00
2019-04-22T10:53:47.628Z,102752.00
2019-04-22T10:54:47.684Z,105504.00
2019-04-22T10:55:49.325Z,106816.00
2019-04-22T10:56:48.764Z,103840.00
2019-04-22T10:57:48.617Z,103648.00
2019-04-22T10:58:48.961Z,101856.00
2019-04-22T10:59:47.973Z,97632.00
2019-04-22T11:00:49.880Z,96256.00
2019-04-22T11:01:48.729Z,96416.00
2019-04-22T11:02:48.181Z,98848.00
2019-04-22T11:03:49.076Z,101376.00
2019-04-22T11:04:48.266Z,103360.00
2019-04-22T11:05:48.435Z,105568.00
2019-04-22T11:06:56.016Z,101792.00
2019-04-22T11:07:53.869Z,99008.00
2019-04-22T11:08:52.865Z,99904.00
2019-04-22T11:09:57.146Z,96448.00
2019-04-22T11:11:04.821Z,99040.00
2019-04-22T11:11:56.583Z,97984.00
2019-04-22T11:12:49.285Z,96384.00
2019-04-22T11:13:49.631Z,90400.00
2019-04-22T11:14:49.736Z,89792.00
2019-04-22T11:15:48.905Z,89536.00
2019-04-22T11:16:49.758Z,86816.00
2019-04-22T11:17:49.571Z,89888.00
2019-04-22T11:18:49.581Z,95232.00
2019-04-22T11:19:49.916Z,97120.00
2019-04-22T11:20:49.547Z,97952.00
2019-04-22T11:21:59.944Z,93952.00
2019-04-22T11:22:50.907Z,87200.00
2019-04-22T11:23:50.389Z,88160.00
2019-04-22T11:24:50.688Z,85184.00
2019-04-22T11:25:50.042Z,84832.00
2019-04-22T11:26:49.509Z,84288.00
2019-04-22T11:27:49.694Z,86976.00
2019-04-22T11:28:49.730Z,89536.00
2019-04-22T11:29:49.793Z,92640.00
2019-04-22T11:30:50.189Z,90944.00
2019-04-22T11:31:50.524Z,85024.00
2019-04-22T11:32:50.694Z,76416.00
2019-04-22T11:33:50.291Z,66208.00
2019-04-22T11:34:51.120Z,64320.00
2019-04-22T11:35:50.216Z,63968.00
2019-04-22T11:36:50.572Z,61856.00
2019-04-22T11:37:50.717Z,63520.00
2019-04-22T11:38:56.467Z,68128.00
2019-04-22T11:40:04.866Z,70336.00
2019-04-22T11:40:54.057Z,74400.00
2019-04-22T11:41:51.794Z,56608.00
2019-04-22T11:42:50.437Z,59392.00
2019-04-22T11:43:51.330Z,65088.00
2019-04-22T11:44:50.977Z,70272.00
2019-04-22T11:45:51.215Z,74176.00
2019-04-22T11:46:51.695Z,71648.00
2019-04-22T11:47:51.090Z,75840.00
2019-04-22T11:48:51.918Z,80160.00
2019-04-22T11:49:51.961Z,82880.00
2019-04-22T11:50:51.643Z,90016.00
2019-04-22T11:51:51.794Z,91040.00
2019-04-22T11:52:51.048Z,90944.00
2019-04-22T11:53:52.406Z,87328.00
2019-04-22T11:54:51.105Z,74880.00
2019-04-22T11:55:51.163Z,81920.00
2019-04-22T11:56:52.636Z,76576.00
2019-04-22T11:57:51.929Z,72032.00
2019-04-22T11:58:52.822Z,75456.00
2019-04-22T11:59:51.447Z,78272.00
2019-04-22T12:00:51.991Z,78848.00
2019-04-22T12:01:52.814Z,77024.00
2019-04-22T12:02:51.569Z,67008.00
2019-04-22T12:03:51.855Z,62624.00
2019-04-22T12:04:51.977Z,55456.00
2019-04-22T12:05:52.230Z,70624.00
2019-04-22T12:06:51.816Z,72704.00
2019-04-22T12:07:53.107Z,80992.00
2019-04-22T12:08:51.987Z,83136.00
2019-04-22T12:09:53.297Z,86240.00
2019-04-22T12:10:55.390Z,89504.00
2019-04-22T12:11:53.783Z,75872.00
2019-04-22T12:12:53.537Z,70624.00
2019-04-22T12:13:53.803Z,53664.00
2019-04-22T12:14:52.337Z,54720.00
2019-04-22T12:15:53.391Z,49216.00
2019-04-22T12:16:53.137Z,54048.00
2019-04-22T12:17:53.095Z,60832.00
2019-04-22T12:18:53.473Z,78368.00
2019-04-22T12:19:52.683Z,74336.00
2019-04-22T12:20:53.147Z,73696.00
2019-04-22T12:21:53.165Z,71168.00
2019-04-22T12:22:53.373Z,73120.00
2019-04-22T12:23:52.951Z,68864.00
2019-04-22T12:24:53.072Z,70112.00
2019-04-22T12:26:01.274Z,65184.00
2019-04-22T12:26:52.966Z,58368.00
2019-04-22T12:27:53.071Z,52864.00
2019-04-22T12:28:53.284Z,51648.00
2019-04-22T12:29:53.230Z,50752.00
2019-04-22T12:30:53.528Z,55648.00
2019-04-22T12:31:53.590Z,55136.00
2019-04-22T12:32:54.548Z,66560.00
2019-04-22T12:33:53.402Z,64480.00
2019-04-22T12:34:53.499Z,65120.00
2019-04-22T12:35:54.672Z,75840.00
2019-04-22T12:36:54.460Z,75456.00
2019-04-22T12:37:58.902Z,72384.00
2019-04-22T12:38:53.779Z,56480.00
2019-04-22T12:39:56.424Z,69792.00
2019-04-22T12:40:59.097Z,56416.00
2019-04-22T12:41:54.081Z,64704.00
2019-04-22T12:42:55.323Z,64192.00
2019-04-22T12:43:55.412Z,65600.00
2019-04-22T12:44:54.150Z,69568.00
2019-04-22T12:45:54.369Z,69952.00
2019-04-22T12:46:54.473Z,71168.00
2019-04-22T12:47:54.226Z,86464.00
2019-04-22T12:48:54.276Z,95296.00
2019-04-22T12:50:06.336Z,101472.00
2019-04-22T12:50:56.436Z,95744.00
2019-04-22T12:51:54.808Z,92672.00
2019-04-22T12:52:59.406Z,91808.00
2019-04-22T12:53:55.130Z,102624.00
2019-04-22T12:54:55.166Z,103200.00
2019-04-22T12:55:55.471Z,100192.00
2019-04-22T12:56:55.709Z,96608.00
2019-04-22T12:57:58.585Z,92928.00
2019-04-22T12:58:55.859Z,91232.00
2019-04-22T12:59:55.417Z,90560.00
2019-04-22T13:00:55.011Z,89824.00
2019-04-22T13:01:55.272Z,91456.00
2019-04-22T13:02:55.111Z,93568.00
2019-04-22T13:04:00.278Z,89408.00
2019-04-22T13:04:56.265Z,87872.00
2019-04-22T13:05:56.168Z,100064.00
2019-04-22T13:06:55.580Z,96800.00
2019-04-22T13:07:55.819Z,83872.00
2019-04-22T13:08:56.572Z,64640.00
2019-04-22T13:09:57.014Z,53824.00
2019-04-22T13:11:03.179Z,51200.00
2019-04-22T13:11:57.076Z,52128.00
2019-04-22T13:12:57.021Z,48224.00
2019-04-22T13:13:56.753Z,51680.00
2019-04-22T13:14:57.204Z,51264.00
2019-04-22T13:15:57.097Z,53440.00
2019-04-22T13:16:55.997Z,56896.00
2019-04-22T13:18:05.985Z,49248.00
2019-04-22T13:19:01.159Z,43392.00
2019-04-22T13:19:56.199Z,36512.00
2019-04-22T13:20:56.780Z,31872.00
2019-04-22T13:21:56.623Z,30784.00
2019-04-22T13:22:57.007Z,31072.00
2019-04-22T13:23:57.090Z,31680.00
2019-04-22T13:24:57.528Z,32416.00
2019-04-22T13:25:56.781Z,30592.00
2019-04-22T13:26:57.100Z,28832.00
2019-04-22T13:27:57.566Z,28544.00
2019-04-22T13:28:56.974Z,27776.00
2019-04-22T13:29:57.143Z,27712.00
2019-04-22T13:30:59.715Z,27328.00
2019-04-22T13:31:58.163Z,27104.00
2019-04-22T13:32:56.904Z,26688.00
2019-04-22T13:33:59.668Z,26336.00
2019-04-22T13:34:59.961Z,26496.00
2019-04-22T13:35:57.503Z,26848.00
2019-04-22T13:36:57.151Z,26240.00
2019-04-22T13:37:57.399Z,25792.00
2019-04-22T13:38:58.610Z,25856.00
2019-04-22T13:39:57.305Z,25568.00
2019-04-22T13:41:09.754Z,24960.00
2019-04-22T13:42:02.070Z,24608.00
2019-04-22T13:42:58.697Z,24416.00